sensor_id;sensor_type;location;lat;lon;timestamp;P1;durP1;ratioP1;P2;durP2;ratioP2
50683;SDS011;36654;45.042;38.994;2023-03-14T00:02:22;19.25;;;10.10;;
50683;SDS011;36654;45.042;38.994;2023-03-14T00:04:48;19.02;;;9.63;;
50683;SDS011;36654;45.042;38.994;2023-03-14T00:07:13;18.52;;;9.13;;
50683;SDS011;36654;45.042;38.994;2023-03-14T00:09:39;16.92;;;8.65;;
50683;SDS011;36654;45.042;38.994;2023-03-14T00:12:05;20.75;;;10.80;;
50683;SDS011;36654;45.042;38.994;2023-03-14T00:14:32;16.10;;;9.13;;
50683;SDS011;36654;45.042;38.994;2023-03-14T00:16:58;16.88;;;8.88;;
50683;SDS011;36654;45.042;38.994;2023-03-14T00:19:24;19.73;;;10.85;;
50683;SDS011;36654;45.042;38.994;2023-03-14T00:21:49;22.15;;;9.55;;
50683;SDS011;36654;45.042;38.994;2023-03-14T00:24:15;18.27;;;10.43;;
50683;SDS011;36654;45.042;38.994;2023-03-14T00:26:40;18.73;;;10.15;;
50683;SDS011;36654;45.042;38.994;2023-03-14T00:29:06;20.58;;;10.07;;
50683;SDS011;36654;45.042;38.994;2023-03-14T00:31:32;18.23;;;9.50;;
50683;SDS011;36654;45.042;38.994;2023-03-14T00:33:57;18.88;;;8.60;;
50683;SDS011;36654;45.042;38.994;2023-03-14T00:36:23;17.60;;;9.07;;
50683;SDS011;36654;45.042;38.994;2023-03-14T00:38:49;19.92;;;9.60;;
50683;SDS011;36654;45.042;38.994;2023-03-14T00:41:20;20.23;;;9.57;;
50683;SDS011;36654;45.042;38.994;2023-03-14T00:43:50;16.92;;;8.65;;
50683;SDS011;36654;45.042;38.994;2023-03-14T00:46:17;20.42;;;9.80;;
50683;SDS011;36654;45.042;38.994;2023-03-14T00:48:44;17.48;;;8.77;;
50683;SDS011;36654;45.042;38.994;2023-03-14T00:51:11;18.83;;;9.20;;
50683;SDS011;36654;45.042;38.994;2023-03-14T00:53:39;21.73;;;9.82;;
50683;SDS011;36654;45.042;38.994;2023-03-14T00:56:05;19.35;;;9.35;;
50683;SDS011;36654;45.042;38.994;2023-03-14T00:58:33;16.30;;;8.73;;
50683;SDS011;36654;45.042;38.994;2023-03-14T01:00:58;18.50;;;9.65;;
50683;SDS011;36654;45.042;38.994;2023-03-14T01:03:24;17.40;;;8.68;;
50683;SDS011;36654;45.042;38.994;2023-03-14T01:05:50;19.50;;;9.80;;
50683;SDS011;36654;45.042;38.994;2023-03-14T01:08:16;21.27;;;9.07;;
50683;SDS011;36654;45.042;38.994;2023-03-14T01:10:42;15.18;;;7.03;;
50683;SDS011;36654;45.042;38.994;2023-03-14T01:13:09;17.63;;;8.50;;
50683;SDS011;36654;45.042;38.994;2023-03-14T01:15:35;16.63;;;8.50;;
50683;SDS011;36654;45.042;38.994;2023-03-14T01:18:01;20.10;;;8.77;;
50683;SDS011;36654;45.042;38.994;2023-03-14T01:20:28;18.25;;;8.82;;
50683;SDS011;36654;45.042;38.994;2023-03-14T01:22:53;19.05;;;8.57;;
50683;SDS011;36654;45.042;38.994;2023-03-14T01:25:19;16.15;;;7.60;;
50683;SDS011;36654;45.042;38.994;2023-03-14T01:27:44;20.73;;;9.48;;
50683;SDS011;36654;45.042;38.994;2023-03-14T01:30:11;19.52;;;10.25;;
50683;SDS011;36654;45.042;38.994;2023-03-14T01:32:37;19.65;;;8.90;;
50683;SDS011;36654;45.042;38.994;2023-03-14T01:35:03;15.57;;;7.97;;
50683;SDS011;36654;45.042;38.994;2023-03-14T01:37:29;18.52;;;7.95;;
50683;SDS011;36654;45.042;38.994;2023-03-14T01:39:55;17.63;;;8.60;;
50683;SDS011;36654;45.042;38.994;2023-03-14T01:42:21;20.13;;;9.30;;
50683;SDS011;36654;45.042;38.994;2023-03-14T01:47:23;15.13;;;8.68;;
50683;SDS011;36654;45.042;38.994;2023-03-14T01:49:59;19.33;;;8.52;;
50683;SDS011;36654;45.042;38.994;2023-03-14T01:52:32;17.95;;;9.02;;
50683;SDS011;36654;45.042;38.994;2023-03-14T01:55:05;17.13;;;8.55;;
50683;SDS011;36654;45.042;38.994;2023-03-14T01:57:36;18.17;;;8.90;;
50683;SDS011;36654;45.042;38.994;2023-03-14T02:02:42;18.05;;;9.65;;
50683;SDS011;36654;45.042;38.994;2023-03-14T02:05:10;19.80;;;8.07;;
50683;SDS011;36654;45.042;38.994;2023-03-14T02:07:41;15.63;;;8.57;;
50683;SDS011;36654;45.042;38.994;2023-03-14T02:10:19;20.65;;;9.32;;
50683;SDS011;36654;45.042;38.994;2023-03-14T02:12:49;16.05;;;8.30;;
50683;SDS011;36654;45.042;38.994;2023-03-14T02:15:15;15.93;;;8.50;;
50683;SDS011;36654;45.042;38.994;2023-03-14T02:17:42;19.65;;;9.32;;
50683;SDS011;36654;45.042;38.994;2023-03-14T02:22:46;16.27;;;7.72;;
50683;SDS011;36654;45.042;38.994;2023-03-14T02:27:49;14.48;;;7.55;;
50683;SDS011;36654;45.042;38.994;2023-03-14T02:30:16;14.73;;;7.70;;
50683;SDS011;36654;45.042;38.994;2023-03-14T02:32:46;13.52;;;6.57;;
50683;SDS011;36654;45.042;38.994;2023-03-14T02:35:18;14.15;;;7.10;;
50683;SDS011;36654;45.042;38.994;2023-03-14T02:40:12;12.40;;;6.10;;
50683;SDS011;36654;45.042;38.994;2023-03-14T02:42:38;12.80;;;6.85;;
50683;SDS011;36654;45.042;38.994;2023-03-14T02:45:49;11.85;;;6.32;;
50683;SDS011;36654;45.042;38.994;2023-03-14T02:47:52;12.82;;;6.50;;
50683;SDS011;36654;45.042;38.994;2023-03-14T02:50:24;10.30;;;5.88;;
50683;SDS011;36654;45.042;38.994;2023-03-14T02:52:53;11.98;;;6.05;;
50683;SDS011;36654;45.042;38.994;2023-03-14T02:55:22;10.75;;;5.93;;
50683;SDS011;36654;45.042;38.994;2023-03-14T02:57:48;9.05;;;5.68;;
50683;SDS011;36654;45.042;38.994;2023-03-14T03:00:14;9.05;;;5.03;;
50683;SDS011;36654;45.042;38.994;2023-03-14T03:02:41;9.73;;;5.32;;
50683;SDS011;36654;45.042;38.994;2023-03-14T03:05:06;11.57;;;5.93;;
50683;SDS011;36654;45.042;38.994;2023-03-14T03:07:32;12.00;;;5.93;;
50683;SDS011;36654;45.042;38.994;2023-03-14T03:09:58;8.82;;;4.43;;
50683;SDS011;36654;45.042;38.994;2023-03-14T03:12:23;9.88;;;4.75;;
50683;SDS011;36654;45.042;38.994;2023-03-14T03:14:49;11.13;;;5.65;;
50683;SDS011;36654;45.042;38.994;2023-03-14T03:17:14;11.63;;;5.38;;
50683;SDS011;36654;45.042;38.994;2023-03-14T03:19:40;13.18;;;5.32;;
50683;SDS011;36654;45.042;38.994;2023-03-14T03:22:06;11.80;;;5.25;;
50683;SDS011;36654;45.042;38.994;2023-03-14T03:24:32;9.90;;;5.35;;
50683;SDS011;36654;45.042;38.994;2023-03-14T03:26:57;6.72;;;4.47;;
50683;SDS011;36654;45.042;38.994;2023-03-14T03:29:23;10.68;;;4.95;;
50683;SDS011;36654;45.042;38.994;2023-03-14T03:31:49;7.80;;;5.20;;
50683;SDS011;36654;45.042;38.994;2023-03-14T03:34:14;7.43;;;4.05;;
50683;SDS011;36654;45.042;38.994;2023-03-14T03:36:40;8.45;;;4.55;;
50683;SDS011;36654;45.042;38.994;2023-03-14T03:39:06;9.48;;;5.20;;
50683;SDS011;36654;45.042;38.994;2023-03-14T03:41:32;9.95;;;4.60;;
50683;SDS011;36654;45.042;38.994;2023-03-14T03:43:57;7.28;;;4.68;;
50683;SDS011;36654;45.042;38.994;2023-03-14T03:46:24;10.32;;;4.90;;
50683;SDS011;36654;45.042;38.994;2023-03-14T03:48:56;7.70;;;4.95;;
50683;SDS011;36654;45.042;38.994;2023-03-14T03:51:24;8.05;;;4.68;;
50683;SDS011;36654;45.042;38.994;2023-03-14T03:53:51;7.43;;;4.57;;
50683;SDS011;36654;45.042;38.994;2023-03-14T03:56:16;5.85;;;3.95;;
50683;SDS011;36654;45.042;38.994;2023-03-14T03:58:42;7.45;;;3.70;;
50683;SDS011;36654;45.042;38.994;2023-03-14T04:01:08;10.30;;;4.50;;
50683;SDS011;36654;45.042;38.994;2023-03-14T04:03:34;5.88;;;3.72;;
50683;SDS011;36654;45.042;38.994;2023-03-14T04:06:01;7.53;;;4.32;;
50683;SDS011;36654;45.042;38.994;2023-03-14T04:08:29;6.60;;;4.18;;
50683;SDS011;36654;45.042;38.994;2023-03-14T04:10:55;5.80;;;4.25;;
50683;SDS011;36654;45.042;38.994;2023-03-14T04:13:22;9.57;;;4.00;;
50683;SDS011;36654;45.042;38.994;2023-03-14T04:15:48;6.30;;;3.90;;
50683;SDS011;36654;45.042;38.994;2023-03-14T04:18:14;6.03;;;3.05;;
50683;SDS011;36654;45.042;38.994;2023-03-14T04:20:40;6.97;;;4.50;;
50683;SDS011;36654;45.042;38.994;2023-03-14T04:23:05;4.97;;;3.22;;
50683;SDS011;36654;45.042;38.994;2023-03-14T04:25:31;6.05;;;3.88;;
50683;SDS011;36654;45.042;38.994;2023-03-14T04:27:56;6.80;;;3.50;;
50683;SDS011;36654;45.042;38.994;2023-03-14T04:30:22;7.30;;;3.50;;
50683;SDS011;36654;45.042;38.994;2023-03-14T04:32:48;5.93;;;4.00;;
50683;SDS011;36654;45.042;38.994;2023-03-14T04:35:13;5.57;;;3.47;;
50683;SDS011;36654;45.042;38.994;2023-03-14T04:37:39;6.95;;;4.07;;
50683;SDS011;36654;45.042;38.994;2023-03-14T04:40:07;8.88;;;4.18;;
50683;SDS011;36654;45.042;38.994;2023-03-14T04:42:33;11.23;;;4.00;;
50683;SDS011;36654;45.042;38.994;2023-03-14T04:44:59;12.23;;;6.47;;
50683;SDS011;36654;45.042;38.994;2023-03-14T04:47:25;5.93;;;3.78;;
50683;SDS011;36654;45.042;38.994;2023-03-14T04:49:51;5.50;;;3.70;;
50683;SDS011;36654;45.042;38.994;2023-03-14T04:52:17;7.22;;;4.00;;
50683;SDS011;36654;45.042;38.994;2023-03-14T04:54:42;7.65;;;3.97;;
50683;SDS011;36654;45.042;38.994;2023-03-14T04:57:08;8.60;;;3.95;;
50683;SDS011;36654;45.042;38.994;2023-03-14T04:59:34;8.60;;;4.22;;
50683;SDS011;36654;45.042;38.994;2023-03-14T05:01:59;10.07;;;4.80;;
50683;SDS011;36654;45.042;38.994;2023-03-14T05:04:25;7.93;;;4.13;;
50683;SDS011;36654;45.042;38.994;2023-03-14T05:06:50;6.00;;;3.90;;
50683;SDS011;36654;45.042;38.994;2023-03-14T05:09:16;11.85;;;4.60;;
50683;SDS011;36654;45.042;38.994;2023-03-14T05:11:41;6.95;;;4.00;;
50683;SDS011;36654;45.042;38.994;2023-03-14T05:14:07;6.82;;;4.43;;
50683;SDS011;36654;45.042;38.994;2023-03-14T05:16:33;8.85;;;4.78;;
50683;SDS011;36654;45.042;38.994;2023-03-14T05:18:58;10.85;;;5.35;;
50683;SDS011;36654;45.042;38.994;2023-03-14T05:21:24;9.27;;;4.00;;
50683;SDS011;36654;45.042;38.994;2023-03-14T05:23:50;11.50;;;4.72;;
50683;SDS011;36654;45.042;38.994;2023-03-14T05:26:15;10.50;;;4.60;;
50683;SDS011;36654;45.042;38.994;2023-03-14T05:28:42;8.18;;;4.45;;
50683;SDS011;36654;45.042;38.994;2023-03-14T05:31:08;13.23;;;5.55;;
50683;SDS011;36654;45.042;38.994;2023-03-14T05:33:34;11.65;;;4.75;;
50683;SDS011;36654;45.042;38.994;2023-03-14T05:35:59;11.27;;;4.82;;
50683;SDS011;36654;45.042;38.994;2023-03-14T05:38:25;8.73;;;3.90;;
50683;SDS011;36654;45.042;38.994;2023-03-14T05:40:50;8.93;;;4.82;;
50683;SDS011;36654;45.042;38.994;2023-03-14T05:43:16;9.70;;;4.80;;
50683;SDS011;36654;45.042;38.994;2023-03-14T05:45:42;8.13;;;4.97;;
50683;SDS011;36654;45.042;38.994;2023-03-14T05:48:08;8.15;;;5.00;;
50683;SDS011;36654;45.042;38.994;2023-03-14T05:50:34;9.15;;;5.25;;
50683;SDS011;36654;45.042;38.994;2023-03-14T05:53:00;9.65;;;3.83;;
50683;SDS011;36654;45.042;38.994;2023-03-14T05:55:25;5.60;;;4.25;;
50683;SDS011;36654;45.042;38.994;2023-03-14T05:57:52;10.75;;;4.70;;
50683;SDS011;36654;45.042;38.994;2023-03-14T06:00:18;10.25;;;4.88;;
50683;SDS011;36654;45.042;38.994;2023-03-14T06:02:44;8.68;;;4.50;;
50683;SDS011;36654;45.042;38.994;2023-03-14T06:05:10;5.70;;;3.30;;
50683;SDS011;36654;45.042;38.994;2023-03-14T06:07:35;8.10;;;4.28;;
50683;SDS011;36654;45.042;38.994;2023-03-14T06:10:01;6.85;;;4.32;;
50683;SDS011;36654;45.042;38.994;2023-03-14T06:12:27;6.93;;;4.18;;
50683;SDS011;36654;45.042;38.994;2023-03-14T06:14:53;6.03;;;3.80;;
50683;SDS011;36654;45.042;38.994;2023-03-14T06:17:18;7.18;;;4.68;;
50683;SDS011;36654;45.042;38.994;2023-03-14T06:19:44;6.72;;;4.05;;
50683;SDS011;36654;45.042;38.994;2023-03-14T06:22:10;7.60;;;4.32;;
50683;SDS011;36654;45.042;38.994;2023-03-14T06:24:35;5.18;;;4.07;;
50683;SDS011;36654;45.042;38.994;2023-03-14T06:27:01;7.28;;;4.22;;
50683;SDS011;36654;45.042;38.994;2023-03-14T06:29:28;6.30;;;4.13;;
50683;SDS011;36654;45.042;38.994;2023-03-14T06:31:54;11.48;;;5.25;;
50683;SDS011;36654;45.042;38.994;2023-03-14T06:34:20;6.50;;;4.00;;
50683;SDS011;36654;45.042;38.994;2023-03-14T06:36:45;8.48;;;4.75;;
50683;SDS011;36654;45.042;38.994;2023-03-14T06:39:11;7.60;;;4.88;;
50683;SDS011;36654;45.042;38.994;2023-03-14T06:41:37;9.93;;;4.50;;
50683;SDS011;36654;45.042;38.994;2023-03-14T06:44:02;5.63;;;3.80;;
50683;SDS011;36654;45.042;38.994;2023-03-14T06:46:28;8.43;;;4.10;;
50683;SDS011;36654;45.042;38.994;2023-03-14T06:48:54;12.77;;;4.53;;
50683;SDS011;36654;45.042;38.994;2023-03-14T06:51:20;8.80;;;4.03;;
50683;SDS011;36654;45.042;38.994;2023-03-14T06:53:45;9.82;;;4.28;;
50683;SDS011;36654;45.042;38.994;2023-03-14T06:56:11;6.60;;;4.00;;
50683;SDS011;36654;45.042;38.994;2023-03-14T06:58:36;7.32;;;4.00;;
50683;SDS011;36654;45.042;38.994;2023-03-14T07:01:02;10.45;;;4.95;;
50683;SDS011;36654;45.042;38.994;2023-03-14T07:03:28;6.15;;;3.58;;
50683;SDS011;36654;45.042;38.994;2023-03-14T07:05:54;6.35;;;3.80;;
50683;SDS011;36654;45.042;38.994;2023-03-14T07:08:20;7.30;;;4.25;;
50683;SDS011;36654;45.042;38.994;2023-03-14T07:10:45;8.75;;;4.30;;
50683;SDS011;36654;45.042;38.994;2023-03-14T07:13:11;9.73;;;4.32;;
50683;SDS011;36654;45.042;38.994;2023-03-14T07:15:37;7.22;;;4.47;;
50683;SDS011;36654;45.042;38.994;2023-03-14T07:18:02;9.07;;;5.03;;
50683;SDS011;36654;45.042;38.994;2023-03-14T07:20:28;8.00;;;4.75;;
50683;SDS011;36654;45.042;38.994;2023-03-14T07:22:54;7.70;;;4.10;;
50683;SDS011;36654;45.042;38.994;2023-03-14T07:25:20;7.97;;;4.45;;
50683;SDS011;36654;45.042;38.994;2023-03-14T07:27:46;12.23;;;4.43;;
50683;SDS011;36654;45.042;38.994;2023-03-14T07:30:14;8.50;;;4.93;;
50683;SDS011;36654;45.042;38.994;2023-03-14T07:32:40;13.52;;;5.13;;
50683;SDS011;36654;45.042;38.994;2023-03-14T07:35:05;10.63;;;4.45;;
50683;SDS011;36654;45.042;38.994;2023-03-14T07:37:32;4.22;;;3.20;;
50683;SDS011;36654;45.042;38.994;2023-03-14T07:39:57;7.63;;;4.10;;
50683;SDS011;36654;45.042;38.994;2023-03-14T07:42:23;8.43;;;4.03;;
50683;SDS011;36654;45.042;38.994;2023-03-14T07:44:48;6.28;;;3.55;;
50683;SDS011;36654;45.042;38.994;2023-03-14T07:47:14;8.90;;;4.18;;
50683;SDS011;36654;45.042;38.994;2023-03-14T07:49:39;7.05;;;3.65;;
50683;SDS011;36654;45.042;38.994;2023-03-14T07:52:05;11.13;;;4.53;;
50683;SDS011;36654;45.042;38.994;2023-03-14T07:54:30;5.35;;;3.50;;
50683;SDS011;36654;45.042;38.994;2023-03-14T07:56:56;6.50;;;3.50;;
50683;SDS011;36654;45.042;38.994;2023-03-14T08:01:50;7.13;;;3.95;;
50683;SDS011;36654;45.042;38.994;2023-03-14T08:04:16;9.18;;;4.32;;
50683;SDS011;36654;45.042;38.994;2023-03-14T08:06:41;6.47;;;4.30;;
50683;SDS011;36654;45.042;38.994;2023-03-14T08:09:07;6.95;;;4.00;;
50683;SDS011;36654;45.042;38.994;2023-03-14T08:11:33;5.43;;;3.85;;
50683;SDS011;36654;45.042;38.994;2023-03-14T08:13:58;5.65;;;3.53;;
50683;SDS011;36654;45.042;38.994;2023-03-14T08:16:24;5.82;;;3.83;;
50683;SDS011;36654;45.042;38.994;2023-03-14T08:18:50;6.43;;;3.85;;
50683;SDS011;36654;45.042;38.994;2023-03-14T08:21:15;5.93;;;3.70;;
50683;SDS011;36654;45.042;38.994;2023-03-14T08:23:41;7.22;;;3.65;;
50683;SDS011;36654;45.042;38.994;2023-03-14T08:26:06;6.47;;;3.60;;
50683;SDS011;36654;45.042;38.994;2023-03-14T08:28:32;4.32;;;3.55;;
50683;SDS011;36654;45.042;38.994;2023-03-14T08:30:58;4.78;;;3.10;;
50683;SDS011;36654;45.042;38.994;2023-03-14T08:33:26;5.65;;;3.67;;
50683;SDS011;36654;45.042;38.994;2023-03-14T08:35:53;8.90;;;4.15;;
50683;SDS011;36654;45.042;38.994;2023-03-14T08:38:19;7.28;;;3.90;;
50683;SDS011;36654;45.042;38.994;2023-03-14T08:40:45;6.55;;;4.05;;
50683;SDS011;36654;45.042;38.994;2023-03-14T08:43:11;7.80;;;5.15;;
50683;SDS011;36654;45.042;38.994;2023-03-14T08:45:36;5.35;;;3.72;;
50683;SDS011;36654;45.042;38.994;2023-03-14T08:48:02;5.28;;;3.35;;
50683;SDS011;36654;45.042;38.994;2023-03-14T08:50:28;5.82;;;3.53;;
50683;SDS011;36654;45.042;38.994;2023-03-14T08:52:53;8.00;;;4.30;;
50683;SDS011;36654;45.042;38.994;2023-03-14T08:55:19;6.80;;;3.65;;
50683;SDS011;36654;45.042;38.994;2023-03-14T08:57:45;14.75;;;4.20;;
50683;SDS011;36654;45.042;38.994;2023-03-14T09:00:11;5.57;;;3.38;;
50683;SDS011;36654;45.042;38.994;2023-03-14T09:02:40;7.82;;;3.88;;
50683;SDS011;36654;45.042;38.994;2023-03-14T09:05:08;6.53;;;3.85;;
50683;SDS011;36654;45.042;38.994;2023-03-14T09:07:33;4.65;;;3.45;;
50683;SDS011;36654;45.042;38.994;2023-03-14T09:09:59;7.03;;;3.85;;
50683;SDS011;36654;45.042;38.994;2023-03-14T09:12:25;6.97;;;3.97;;
50683;SDS011;36654;45.042;38.994;2023-03-14T09:14:50;5.90;;;3.80;;
50683;SDS011;36654;45.042;38.994;2023-03-14T09:17:16;8.13;;;4.45;;
50683;SDS011;36654;45.042;38.994;2023-03-14T09:19:41;6.07;;;4.25;;
50683;SDS011;36654;45.042;38.994;2023-03-14T09:22:07;10.23;;;3.83;;
50683;SDS011;36654;45.042;38.994;2023-03-14T09:24:32;6.13;;;4.03;;
50683;SDS011;36654;45.042;38.994;2023-03-14T09:26:58;7.40;;;4.47;;
50683;SDS011;36654;45.042;38.994;2023-03-14T09:29:23;4.80;;;3.50;;
50683;SDS011;36654;45.042;38.994;2023-03-14T09:31:49;5.82;;;3.63;;
50683;SDS011;36654;45.042;38.994;2023-03-14T09:34:15;7.25;;;3.78;;
50683;SDS011;36654;45.042;38.994;2023-03-14T09:36:41;7.85;;;4.20;;
50683;SDS011;36654;45.042;38.994;2023-03-14T09:39:09;5.50;;;4.20;;
50683;SDS011;36654;45.042;38.994;2023-03-14T09:41:36;6.32;;;4.07;;
50683;SDS011;36654;45.042;38.994;2023-03-14T09:44:10;7.05;;;4.72;;
50683;SDS011;36654;45.042;38.994;2023-03-14T09:46:40;6.75;;;4.28;;
50683;SDS011;36654;45.042;38.994;2023-03-14T09:49:20;6.63;;;4.20;;
50683;SDS011;36654;45.042;38.994;2023-03-14T09:51:54;6.85;;;4.15;;
50683;SDS011;36654;45.042;38.994;2023-03-14T09:54:43;6.30;;;3.90;;
50683;SDS011;36654;45.042;38.994;2023-03-14T09:57:13;6.22;;;3.65;;
50683;SDS011;36654;45.042;38.994;2023-03-14T09:59:43;7.43;;;3.95;;
50683;SDS011;36654;45.042;38.994;2023-03-14T10:04:46;5.47;;;3.42;;
50683;SDS011;36654;45.042;38.994;2023-03-14T10:07:25;6.40;;;3.50;;
50683;SDS011;36654;45.042;38.994;2023-03-14T10:09:54;4.43;;;3.28;;
50683;SDS011;36654;45.042;38.994;2023-03-14T10:12:20;4.65;;;3.15;;
50683;SDS011;36654;45.042;38.994;2023-03-14T10:14:56;4.57;;;3.35;;
50683;SDS011;36654;45.042;38.994;2023-03-14T10:17:22;4.20;;;3.15;;
50683;SDS011;36654;45.042;38.994;2023-03-14T10:20:00;4.47;;;3.22;;
50683;SDS011;36654;45.042;38.994;2023-03-14T10:22:27;8.40;;;3.38;;
50683;SDS011;36654;45.042;38.994;2023-03-14T10:24:57;6.13;;;3.42;;
50683;SDS011;36654;45.042;38.994;2023-03-14T10:27:42;7.13;;;3.67;;
50683;SDS011;36654;45.042;38.994;2023-03-14T10:32:59;6.43;;;3.33;;
50683;SDS011;36654;45.042;38.994;2023-03-14T10:35:33;9.75;;;4.25;;
50683;SDS011;36654;45.042;38.994;2023-03-14T10:38:00;7.43;;;3.78;;
50683;SDS011;36654;45.042;38.994;2023-03-14T10:40:31;7.22;;;4.05;;
50683;SDS011;36654;45.042;38.994;2023-03-14T10:42:59;6.45;;;4.00;;
50683;SDS011;36654;45.042;38.994;2023-03-14T10:45:38;8.07;;;4.13;;
50683;SDS011;36654;45.042;38.994;2023-03-14T10:48:18;10.65;;;4.18;;
50683;SDS011;36654;45.042;38.994;2023-03-14T10:51:04;8.27;;;3.85;;
50683;SDS011;36654;45.042;38.994;2023-03-14T10:53:34;7.50;;;4.63;;
50683;SDS011;36654;45.042;38.994;2023-03-14T10:56:05;6.40;;;3.72;;
50683;SDS011;36654;45.042;38.994;2023-03-14T10:58:32;6.55;;;4.32;;
50683;SDS011;36654;45.042;38.994;2023-03-14T11:03:42;4.30;;;3.42;;
50683;SDS011;36654;45.042;38.994;2023-03-14T11:06:17;7.93;;;4.20;;
50683;SDS011;36654;45.042;38.994;2023-03-14T11:09:04;8.43;;;3.92;;
50683;SDS011;36654;45.042;38.994;2023-03-14T11:11:37;8.63;;;4.20;;
50683;SDS011;36654;45.042;38.994;2023-03-14T11:14:08;6.72;;;4.03;;
50683;SDS011;36654;45.042;38.994;2023-03-14T11:19:42;6.03;;;4.15;;
50683;SDS011;36654;45.042;38.994;2023-03-14T11:22:28;6.40;;;4.72;;
50683;SDS011;36654;45.042;38.994;2023-03-14T11:25:07;6.32;;;4.07;;
50683;SDS011;36654;45.042;38.994;2023-03-14T11:27:53;9.32;;;5.32;;
50683;SDS011;36654;45.042;38.994;2023-03-14T11:30:41;7.45;;;4.85;;
50683;SDS011;36654;45.042;38.994;2023-03-14T11:33:27;11.63;;;5.07;;
50683;SDS011;36654;45.042;38.994;2023-03-14T11:35:59;11.98;;;5.53;;
50683;SDS011;36654;45.042;38.994;2023-03-14T11:38:29;10.73;;;5.57;;
50683;SDS011;36654;45.042;38.994;2023-03-14T11:41:01;10.40;;;4.90;;
50683;SDS011;36654;45.042;38.994;2023-03-14T11:43:30;7.07;;;4.22;;
50683;SDS011;36654;45.042;38.994;2023-03-14T11:46:23;5.90;;;4.55;;
50683;SDS011;36654;45.042;38.994;2023-03-14T11:48:57;12.07;;;4.40;;
50683;SDS011;36654;45.042;38.994;2023-03-14T11:51:35;10.27;;;4.50;;
50683;SDS011;36654;45.042;38.994;2023-03-14T11:54:20;10.02;;;4.57;;
50683;SDS011;36654;45.042;38.994;2023-03-14T11:56:57;7.82;;;3.92;;
50683;SDS011;36654;45.042;38.994;2023-03-14T11:59:31;6.47;;;4.00;;
50683;SDS011;36654;45.042;38.994;2023-03-14T12:02:13;7.85;;;4.93;;
50683;SDS011;36654;45.042;38.994;2023-03-14T12:10:21;5.75;;;3.95;;
50683;SDS011;36654;45.042;38.994;2023-03-14T12:12:47;5.57;;;3.92;;
50683;SDS011;36654;45.042;38.994;2023-03-14T12:15:22;6.85;;;4.47;;
50683;SDS011;36654;45.042;38.994;2023-03-14T12:17:53;7.40;;;4.18;;
50683;SDS011;36654;45.042;38.994;2023-03-14T12:20:23;8.57;;;4.28;;
50683;SDS011;36654;45.042;38.994;2023-03-14T12:25:20;8.60;;;4.15;;
50683;SDS011;36654;45.042;38.994;2023-03-14T12:43:31;4.90;;;3.92;;
50683;SDS011;36654;45.042;38.994;2023-03-14T12:51:29;6.82;;;3.92;;
50683;SDS011;36654;45.042;38.994;2023-03-14T12:59:38;5.60;;;3.42;;
50683;SDS011;36654;45.042;38.994;2023-03-14T13:02:17;8.55;;;3.75;;
50683;SDS011;36654;45.042;38.994;2023-03-14T13:04:49;7.78;;;4.03;;
50683;SDS011;36654;45.042;38.994;2023-03-14T13:12:50;5.82;;;3.97;;
50683;SDS011;36654;45.042;38.994;2023-03-14T13:17:54;7.90;;;4.00;;
50683;SDS011;36654;45.042;38.994;2023-03-14T13:22:54;5.47;;;3.97;;
50683;SDS011;36654;45.042;38.994;2023-03-14T13:25:20;9.18;;;4.75;;
50683;SDS011;36654;45.042;38.994;2023-03-14T13:27:47;8.52;;;3.70;;
50683;SDS011;36654;45.042;38.994;2023-03-14T13:30:25;6.07;;;3.92;;
50683;SDS011;36654;45.042;38.994;2023-03-14T13:32:53;9.15;;;4.03;;
50683;SDS011;36654;45.042;38.994;2023-03-14T13:35:24;13.88;;;5.10;;
50683;SDS011;36654;45.042;38.994;2023-03-14T13:37:53;7.53;;;4.85;;
50683;SDS011;36654;45.042;38.994;2023-03-14T13:40:26;6.13;;;4.35;;
50683;SDS011;36654;45.042;38.994;2023-03-14T13:42:59;8.57;;;4.45;;
50683;SDS011;36654;45.042;38.994;2023-03-14T13:45:56;13.63;;;4.65;;
50683;SDS011;36654;45.042;38.994;2023-03-14T13:48:26;7.35;;;5.18;;
50683;SDS011;36654;45.042;38.994;2023-03-14T13:50:55;7.45;;;4.53;;
50683;SDS011;36654;45.042;38.994;2023-03-14T13:53:29;6.63;;;4.88;;
50683;SDS011;36654;45.042;38.994;2023-03-14T13:55:56;7.28;;;4.18;;
50683;SDS011;36654;45.042;38.994;2023-03-14T13:58:27;6.22;;;3.90;;
50683;SDS011;36654;45.042;38.994;2023-03-14T14:01:05;10.57;;;4.57;;
50683;SDS011;36654;45.042;38.994;2023-03-14T14:03:37;11.80;;;4.88;;
50683;SDS011;36654;45.042;38.994;2023-03-14T14:06:28;7.32;;;4.90;;
50683;SDS011;36654;45.042;38.994;2023-03-14T14:08:57;6.65;;;4.25;;
50683;SDS011;36654;45.042;38.994;2023-03-14T14:11:33;5.78;;;3.90;;
50683;SDS011;36654;45.042;38.994;2023-03-14T14:14:08;10.05;;;3.97;;
50683;SDS011;36654;45.042;38.994;2023-03-14T14:16:48;5.57;;;4.00;;
50683;SDS011;36654;45.042;38.994;2023-03-14T14:19:16;8.88;;;4.32;;
50683;SDS011;36654;45.042;38.994;2023-03-14T14:21:44;9.57;;;3.97;;
50683;SDS011;36654;45.042;38.994;2023-03-14T14:24:12;6.40;;;4.28;;
50683;SDS011;36654;45.042;38.994;2023-03-14T14:26:40;5.65;;;4.28;;
50683;SDS011;36654;45.042;38.994;2023-03-14T14:29:24;6.80;;;4.05;;
50683;SDS011;36654;45.042;38.994;2023-03-14T14:34:40;8.43;;;4.43;;
50683;SDS011;36654;45.042;38.994;2023-03-14T14:37:27;9.88;;;4.82;;
50683;SDS011;36654;45.042;38.994;2023-03-14T14:39:56;7.93;;;4.88;;
50683;SDS011;36654;45.042;38.994;2023-03-14T14:42:25;9.55;;;4.65;;
50683;SDS011;36654;45.042;38.994;2023-03-14T14:44:55;7.38;;;4.57;;
50683;SDS011;36654;45.042;38.994;2023-03-14T14:47:22;6.80;;;4.38;;
50683;SDS011;36654;45.042;38.994;2023-03-14T14:49:51;9.75;;;5.45;;
50683;SDS011;36654;45.042;38.994;2023-03-14T14:52:20;6.45;;;3.95;;
50683;SDS011;36654;45.042;38.994;2023-03-14T14:54:58;7.40;;;4.32;;
50683;SDS011;36654;45.042;38.994;2023-03-14T14:57:26;5.38;;;3.45;;
50683;SDS011;36654;45.042;38.994;2023-03-14T14:59:57;6.78;;;4.07;;
50683;SDS011;36654;45.042;38.994;2023-03-14T15:02:38;5.78;;;3.50;;
50683;SDS011;36654;45.042;38.994;2023-03-14T15:05:16;7.25;;;3.78;;
50683;SDS011;36654;45.042;38.994;2023-03-14T15:07:43;5.72;;;3.95;;
50683;SDS011;36654;45.042;38.994;2023-03-14T15:10:14;6.82;;;3.45;;
50683;SDS011;36654;45.042;38.994;2023-03-14T15:12:48;4.78;;;3.80;;
50683;SDS011;36654;45.042;38.994;2023-03-14T15:15:14;7.95;;;4.53;;
50683;SDS011;36654;45.042;38.994;2023-03-14T15:17:40;5.35;;;3.67;;
50683;SDS011;36654;45.042;38.994;2023-03-14T15:20:10;9.52;;;3.90;;
50683;SDS011;36654;45.042;38.994;2023-03-14T15:22:38;6.22;;;4.15;;
50683;SDS011;36654;45.042;38.994;2023-03-14T15:25:07;4.07;;;3.55;;
50683;SDS011;36654;45.042;38.994;2023-03-14T15:27:33;6.85;;;3.92;;
50683;SDS011;36654;45.042;38.994;2023-03-14T15:29:59;4.97;;;3.58;;
50683;SDS011;36654;45.042;38.994;2023-03-14T15:32:25;8.43;;;3.97;;
50683;SDS011;36654;45.042;38.994;2023-03-14T15:34:55;5.43;;;4.00;;
50683;SDS011;36654;45.042;38.994;2023-03-14T15:37:21;8.32;;;3.78;;
50683;SDS011;36654;45.042;38.994;2023-03-14T15:39:46;4.93;;;3.10;;
50683;SDS011;36654;45.042;38.994;2023-03-14T15:42:12;8.65;;;4.00;;
50683;SDS011;36654;45.042;38.994;2023-03-14T15:44:38;5.38;;;3.42;;
50683;SDS011;36654;45.042;38.994;2023-03-14T15:47:08;7.25;;;4.40;;
50683;SDS011;36654;45.042;38.994;2023-03-14T15:49:35;5.53;;;3.75;;
50683;SDS011;36654;45.042;38.994;2023-03-14T15:52:01;5.57;;;3.88;;
50683;SDS011;36654;45.042;38.994;2023-03-14T15:54:27;8.95;;;4.13;;